sensor_id;sensor_type;location;lat;lon;timestamp;P1;durP1;ratioP1;P2;durP2;ratioP2
62941;SDS011;49042;47.318;19.874;2022-10-31T00:01:15;54.00;;;25.30;;
62941;SDS011;49042;47.318;19.874;2022-10-31T00:04:19;52.97;;;24.95;;
62941;SDS011;49042;47.318;19.874;2022-10-31T00:07:21;53.25;;;24.52;;
62941;SDS011;49042;47.318;19.874;2022-10-31T00:10:23;51.47;;;23.98;;
62941;SDS011;49042;47.318;19.874;2022-10-31T00:13:24;47.95;;;24.23;;
62941;SDS011;49042;47.318;19.874;2022-10-31T00:16:27;57.35;;;24.52;;
62941;SDS011;49042;47.318;19.874;2022-10-31T00:19:29;58.65;;;25.45;;
62941;SDS011;49042;47.318;19.874;2022-10-31T00:22:31;54.85;;;26.33;;
62941;SDS011;49042;47.318;19.874;2022-10-31T00:25:34;65.03;;;27.27;;
62941;SDS011;49042;47.318;19.874;2022-10-31T00:28:37;55.30;;;25.65;;
62941;SDS011;49042;47.318;19.874;2022-10-31T00:31:39;57.42;;;25.65;;
62941;SDS011;49042;47.318;19.874;2022-10-31T00:34:41;54.90;;;25.65;;
62941;SDS011;49042;47.318;19.874;2022-10-31T00:37:43;54.90;;;25.67;;
62941;SDS011;49042;47.318;19.874;2022-10-31T00:40:48;63.60;;;26.37;;
62941;SDS011;49042;47.318;19.874;2022-10-31T00:43:50;58.05;;;26.40;;
62941;SDS011;49042;47.318;19.874;2022-10-31T00:46:52;57.35;;;25.27;;
62941;SDS011;49042;47.318;19.874;2022-10-31T00:49:53;57.75;;;26.10;;
62941;SDS011;49042;47.318;19.874;2022-10-31T00:52:55;53.67;;;23.77;;
62941;SDS011;49042;47.318;19.874;2022-10-31T00:55:58;57.62;;;24.87;;
62941;SDS011;49042;47.318;19.874;2022-10-31T00:59:00;54.17;;;24.35;;
62941;SDS011;49042;47.318;19.874;2022-10-31T01:02:01;55.67;;;25.85;;
62941;SDS011;49042;47.318;19.874;2022-10-31T01:05:03;63.53;;;23.98;;
62941;SDS011;49042;47.318;19.874;2022-10-31T01:08:06;51.13;;;24.33;;
62941;SDS011;49042;47.318;19.874;2022-10-31T01:11:11;63.75;;;24.92;;
62941;SDS011;49042;47.318;19.874;2022-10-31T01:14:20;58.63;;;23.40;;
62941;SDS011;49042;47.318;19.874;2022-10-31T01:17:22;52.80;;;23.55;;
62941;SDS011;49042;47.318;19.874;2022-10-31T01:20:24;57.58;;;23.00;;
62941;SDS011;49042;47.318;19.874;2022-10-31T01:23:25;53.10;;;22.62;;
62941;SDS011;49042;47.318;19.874;2022-10-31T01:26:29;51.75;;;23.33;;
62941;SDS011;49042;47.318;19.874;2022-10-31T01:29:32;50.45;;;21.52;;
62941;SDS011;49042;47.318;19.874;2022-10-31T01:32:34;54.42;;;23.05;;
62941;SDS011;49042;47.318;19.874;2022-10-31T01:35:36;53.60;;;22.13;;
62941;SDS011;49042;47.318;19.874;2022-10-31T01:38:38;49.05;;;23.17;;
62941;SDS011;49042;47.318;19.874;2022-10-31T01:41:42;47.25;;;21.23;;
62941;SDS011;49042;47.318;19.874;2022-10-31T01:48:02;47.53;;;21.37;;
62941;SDS011;49042;47.318;19.874;2022-10-31T01:51:04;43.63;;;20.10;;
62941;SDS011;49042;47.318;19.874;2022-10-31T01:54:08;40.47;;;18.90;;
62941;SDS011;49042;47.318;19.874;2022-10-31T01:57:14;34.80;;;18.27;;
62941;SDS011;49042;47.318;19.874;2022-10-31T02:00:17;38.75;;;18.00;;
62941;SDS011;49042;47.318;19.874;2022-10-31T02:03:21;37.63;;;18.23;;
62941;SDS011;49042;47.318;19.874;2022-10-31T02:06:27;31.52;;;17.40;;
62941;SDS011;49042;47.318;19.874;2022-10-31T02:09:37;32.92;;;16.58;;
62941;SDS011;49042;47.318;19.874;2022-10-31T02:12:41;36.70;;;17.40;;
62941;SDS011;49042;47.318;19.874;2022-10-31T02:15:43;35.40;;;16.58;;
62941;SDS011;49042;47.318;19.874;2022-10-31T02:18:47;34.20;;;16.77;;
62941;SDS011;49042;47.318;19.874;2022-10-31T02:21:53;35.60;;;17.25;;
62941;SDS011;49042;47.318;19.874;2022-10-31T02:28:52;35.28;;;16.45;;
62941;SDS011;49042;47.318;19.874;2022-10-31T02:32:06;37.05;;;17.33;;
62941;SDS011;49042;47.318;19.874;2022-10-31T02:42:33;39.58;;;18.30;;
62941;SDS011;49042;47.318;19.874;2022-10-31T02:45:45;38.13;;;17.95;;
62941;SDS011;49042;47.318;19.874;2022-10-31T02:48:54;43.08;;;18.98;;
62941;SDS011;49042;47.318;19.874;2022-10-31T02:52:01;38.60;;;18.17;;
62941;SDS011;49042;47.318;19.874;2022-10-31T02:58:31;38.58;;;18.83;;
62941;SDS011;49042;47.318;19.874;2022-10-31T03:11:28;44.03;;;19.37;;
62941;SDS011;49042;47.318;19.874;2022-10-31T03:14:43;46.13;;;19.48;;
62941;SDS011;49042;47.318;19.874;2022-10-31T03:21:20;40.90;;;18.27;;
62941;SDS011;49042;47.318;19.874;2022-10-31T03:27:32;43.60;;;17.50;;
62941;SDS011;49042;47.318;19.874;2022-10-31T03:30:37;44.95;;;19.52;;
62941;SDS011;49042;47.318;19.874;2022-10-31T03:33:42;38.70;;;18.50;;
62941;SDS011;49042;47.318;19.874;2022-10-31T03:36:48;44.22;;;18.48;;
62941;SDS011;49042;47.318;19.874;2022-10-31T03:39:52;43.75;;;18.42;;
62941;SDS011;49042;47.318;19.874;2022-10-31T03:42:58;40.95;;;17.55;;
62941;SDS011;49042;47.318;19.874;2022-10-31T03:46:04;45.15;;;18.50;;
62941;SDS011;49042;47.318;19.874;2022-10-31T03:49:06;40.17;;;19.17;;
62941;SDS011;49042;47.318;19.874;2022-10-31T03:55:32;47.40;;;19.98;;
62941;SDS011;49042;47.318;19.874;2022-10-31T03:58:38;43.20;;;18.77;;
62941;SDS011;49042;47.318;19.874;2022-10-31T04:01:49;55.08;;;22.80;;
62941;SDS011;49042;47.318;19.874;2022-10-31T04:04:53;55.25;;;23.92;;
62941;SDS011;49042;47.318;19.874;2022-10-31T04:07:55;55.85;;;24.75;;
62941;SDS011;49042;47.318;19.874;2022-10-31T04:11:04;50.08;;;22.02;;
62941;SDS011;49042;47.318;19.874;2022-10-31T04:14:08;50.22;;;21.37;;
62941;SDS011;49042;47.318;19.874;2022-10-31T04:17:12;53.78;;;21.48;;
62941;SDS011;49042;47.318;19.874;2022-10-31T04:20:16;50.12;;;21.40;;
62941;SDS011;49042;47.318;19.874;2022-10-31T04:23:20;49.78;;;19.30;;
62941;SDS011;49042;47.318;19.874;2022-10-31T04:26:25;46.47;;;19.73;;
62941;SDS011;49042;47.318;19.874;2022-10-31T04:29:26;45.65;;;20.45;;
62941;SDS011;49042;47.318;19.874;2022-10-31T04:32:28;44.88;;;19.10;;
62941;SDS011;49042;47.318;19.874;2022-10-31T04:35:30;40.95;;;19.20;;
62941;SDS011;49042;47.318;19.874;2022-10-31T04:38:31;40.03;;;18.48;;
62941;SDS011;49042;47.318;19.874;2022-10-31T04:41:33;42.50;;;18.35;;
62941;SDS011;49042;47.318;19.874;2022-10-31T04:44:35;41.20;;;18.87;;
62941;SDS011;49042;47.318;19.874;2022-10-31T04:47:37;47.58;;;19.40;;
62941;SDS011;49042;47.318;19.874;2022-10-31T04:50:39;46.30;;;19.70;;
62941;SDS011;49042;47.318;19.874;2022-10-31T04:53:40;44.47;;;18.52;;
62941;SDS011;49042;47.318;19.874;2022-10-31T04:56:42;43.22;;;19.33;;
62941;SDS011;49042;47.318;19.874;2022-10-31T04:59:44;39.85;;;18.00;;
62941;SDS011;49042;47.318;19.874;2022-10-31T05:02:49;45.85;;;18.20;;
62941;SDS011;49042;47.318;19.874;2022-10-31T05:05:55;46.05;;;18.62;;
62941;SDS011;49042;47.318;19.874;2022-10-31T05:08:57;38.22;;;16.90;;
62941;SDS011;49042;47.318;19.874;2022-10-31T05:11:59;40.10;;;17.45;;
62941;SDS011;49042;47.318;19.874;2022-10-31T05:15:00;38.92;;;17.17;;
62941;SDS011;49042;47.318;19.874;2022-10-31T05:18:02;39.15;;;17.90;;
62941;SDS011;49042;47.318;19.874;2022-10-31T05:21:04;38.40;;;16.92;;
62941;SDS011;49042;47.318;19.874;2022-10-31T05:24:06;34.65;;;17.15;;
62941;SDS011;49042;47.318;19.874;2022-10-31T05:27:08;38.55;;;17.12;;
62941;SDS011;49042;47.318;19.874;2022-10-31T05:30:10;42.90;;;17.15;;
62941;SDS011;49042;47.318;19.874;2022-10-31T05:33:14;38.10;;;17.27;;
62941;SDS011;49042;47.318;19.874;2022-10-31T05:36:16;42.40;;;17.92;;
62941;SDS011;49042;47.318;19.874;2022-10-31T05:39:17;37.30;;;17.58;;
62941;SDS011;49042;47.318;19.874;2022-10-31T05:42:19;30.35;;;17.12;;
62941;SDS011;49042;47.318;19.874;2022-10-31T05:45:22;37.30;;;17.65;;
62941;SDS011;49042;47.318;19.874;2022-10-31T05:48:24;36.47;;;16.33;;
62941;SDS011;49042;47.318;19.874;2022-10-31T05:51:25;35.45;;;16.30;;
62941;SDS011;49042;47.318;19.874;2022-10-31T05:54:27;38.88;;;15.80;;
62941;SDS011;49042;47.318;19.874;2022-10-31T05:57:31;36.47;;;16.85;;
62941;SDS011;49042;47.318;19.874;2022-10-31T06:00:33;33.63;;;16.30;;
62941;SDS011;49042;47.318;19.874;2022-10-31T06:03:36;39.33;;;16.23;;
62941;SDS011;49042;47.318;19.874;2022-10-31T06:06:38;34.80;;;15.35;;
62941;SDS011;49042;47.318;19.874;2022-10-31T06:09:40;43.60;;;17.98;;
62941;SDS011;49042;47.318;19.874;2022-10-31T06:12:42;28.10;;;16.27;;
62941;SDS011;49042;47.318;19.874;2022-10-31T06:15:44;34.60;;;16.12;;
62941;SDS011;49042;47.318;19.874;2022-10-31T06:18:47;29.98;;;15.20;;
62941;SDS011;49042;47.318;19.874;2022-10-31T06:21:48;27.80;;;14.05;;
62941;SDS011;49042;47.318;19.874;2022-10-31T06:24:50;30.75;;;14.10;;
62941;SDS011;49042;47.318;19.874;2022-10-31T06:27:55;29.58;;;14.35;;
62941;SDS011;49042;47.318;19.874;2022-10-31T06:30:58;28.00;;;14.68;;
62941;SDS011;49042;47.318;19.874;2022-10-31T06:34:00;35.67;;;14.68;;
62941;SDS011;49042;47.318;19.874;2022-10-31T06:37:01;32.00;;;15.32;;
62941;SDS011;49042;47.318;19.874;2022-10-31T06:40:03;29.85;;;13.95;;
62941;SDS011;49042;47.318;19.874;2022-10-31T06:43:06;32.63;;;15.02;;
62941;SDS011;49042;47.318;19.874;2022-10-31T06:46:08;37.80;;;15.18;;
62941;SDS011;49042;47.318;19.874;2022-10-31T06:49:09;31.92;;;14.98;;
62941;SDS011;49042;47.318;19.874;2022-10-31T06:52:11;41.80;;;19.05;;
62941;SDS011;49042;47.318;19.874;2022-10-31T06:55:13;37.35;;;18.50;;
62941;SDS011;49042;47.318;19.874;2022-10-31T06:58:15;34.13;;;16.12;;
62941;SDS011;49042;47.318;19.874;2022-10-31T07:01:16;38.42;;;16.25;;
62941;SDS011;49042;47.318;19.874;2022-10-31T07:04:18;39.65;;;17.77;;
62941;SDS011;49042;47.318;19.874;2022-10-31T07:07:20;42.60;;;17.10;;
62941;SDS011;49042;47.318;19.874;2022-10-31T07:10:23;39.15;;;17.35;;
62941;SDS011;49042;47.318;19.874;2022-10-31T07:13:26;38.50;;;17.25;;
62941;SDS011;49042;47.318;19.874;2022-10-31T07:16:28;38.65;;;16.73;;
62941;SDS011;49042;47.318;19.874;2022-10-31T07:19:30;37.40;;;14.98;;
62941;SDS011;49042;47.318;19.874;2022-10-31T07:22:33;38.15;;;16.58;;
62941;SDS011;49042;47.318;19.874;2022-10-31T07:25:36;32.53;;;15.25;;
62941;SDS011;49042;47.318;19.874;2022-10-31T07:28:38;32.65;;;15.25;;
62941;SDS011;49042;47.318;19.874;2022-10-31T07:31:40;36.40;;;16.20;;
62941;SDS011;49042;47.318;19.874;2022-10-31T07:34:42;34.10;;;15.73;;
62941;SDS011;49042;47.318;19.874;2022-10-31T07:37:48;35.50;;;17.05;;
62941;SDS011;49042;47.318;19.874;2022-10-31T07:40:50;41.10;;;16.33;;
62941;SDS011;49042;47.318;19.874;2022-10-31T07:43:56;38.95;;;18.00;;
62941;SDS011;49042;47.318;19.874;2022-10-31T07:46:57;37.67;;;17.45;;
62941;SDS011;49042;47.318;19.874;2022-10-31T07:49:59;33.92;;;16.55;;
62941;SDS011;49042;47.318;19.874;2022-10-31T07:53:02;43.00;;;16.80;;
62941;SDS011;49042;47.318;19.874;2022-10-31T07:56:11;36.28;;;17.45;;
62941;SDS011;49042;47.318;19.874;2022-10-31T07:59:13;39.88;;;17.15;;
62941;SDS011;49042;47.318;19.874;2022-10-31T08:02:15;38.47;;;16.90;;
62941;SDS011;49042;47.318;19.874;2022-10-31T08:05:16;39.42;;;17.42;;
62941;SDS011;49042;47.318;19.874;2022-10-31T08:08:18;38.05;;;17.27;;
62941;SDS011;49042;47.318;19.874;2022-10-31T08:11:21;36.67;;;16.00;;
62941;SDS011;49042;47.318;19.874;2022-10-31T08:14:25;34.83;;;16.10;;
62941;SDS011;49042;47.318;19.874;2022-10-31T08:17:27;34.55;;;15.77;;
62941;SDS011;49042;47.318;19.874;2022-10-31T08:20:29;36.05;;;16.35;;
62941;SDS011;49042;47.318;19.874;2022-10-31T08:23:31;35.15;;;15.65;;
62941;SDS011;49042;47.318;19.874;2022-10-31T08:26:33;35.08;;;15.55;;
62941;SDS011;49042;47.318;19.874;2022-10-31T08:29:34;32.90;;;15.88;;
62941;SDS011;49042;47.318;19.874;2022-10-31T08:32:36;34.42;;;15.57;;
62941;SDS011;49042;47.318;19.874;2022-10-31T08:35:38;29.12;;;15.20;;
62941;SDS011;49042;47.318;19.874;2022-10-31T08:38:41;38.80;;;16.98;;
62941;SDS011;49042;47.318;19.874;2022-10-31T08:41:42;31.40;;;16.00;;
62941;SDS011;49042;47.318;19.874;2022-10-31T08:44:45;38.70;;;16.75;;
62941;SDS011;49042;47.318;19.874;2022-10-31T08:47:47;32.30;;;15.93;;
62941;SDS011;49042;47.318;19.874;2022-10-31T08:50:48;35.13;;;16.70;;
62941;SDS011;49042;47.318;19.874;2022-10-31T08:53:50;39.38;;;18.92;;
62941;SDS011;49042;47.318;19.874;2022-10-31T08:56:55;35.03;;;17.02;;
62941;SDS011;49042;47.318;19.874;2022-10-31T08:59:57;40.05;;;17.48;;
62941;SDS011;49042;47.318;19.874;2022-10-31T09:03:03;44.13;;;18.05;;
62941;SDS011;49042;47.318;19.874;2022-10-31T09:09:10;42.50;;;17.67;;
62941;SDS011;49042;47.318;19.874;2022-10-31T09:12:12;41.72;;;16.85;;
62941;SDS011;49042;47.318;19.874;2022-10-31T09:15:14;40.88;;;18.55;;
62941;SDS011;49042;47.318;19.874;2022-10-31T09:18:16;41.55;;;18.05;;
62941;SDS011;49042;47.318;19.874;2022-10-31T09:21:23;40.72;;;17.42;;
62941;SDS011;49042;47.318;19.874;2022-10-31T09:24:24;46.88;;;17.52;;
62941;SDS011;49042;47.318;19.874;2022-10-31T09:27:26;43.63;;;17.92;;
62941;SDS011;49042;47.318;19.874;2022-10-31T09:30:29;32.03;;;16.17;;
62941;SDS011;49042;47.318;19.874;2022-10-31T09:33:32;38.50;;;17.95;;
62941;SDS011;49042;47.318;19.874;2022-10-31T09:36:35;31.55;;;16.70;;
62941;SDS011;49042;47.318;19.874;2022-10-31T09:39:37;35.42;;;16.08;;
62941;SDS011;49042;47.318;19.874;2022-10-31T09:53:05;40.67;;;17.98;;
62941;SDS011;49042;47.318;19.874;2022-10-31T09:56:15;41.45;;;19.45;;
62941;SDS011;49042;47.318;19.874;2022-10-31T09:59:26;46.25;;;20.08;;
62941;SDS011;49042;47.318;19.874;2022-10-31T10:06:04;42.83;;;19.25;;
62941;SDS011;49042;47.318;19.874;2022-10-31T10:09:08;44.08;;;20.02;;
62941;SDS011;49042;47.318;19.874;2022-10-31T10:12:20;49.97;;;21.02;;
62941;SDS011;49042;47.318;19.874;2022-10-31T10:15:42;47.38;;;19.05;;
62941;SDS011;49042;47.318;19.874;2022-10-31T10:25:37;44.00;;;19.08;;
62941;SDS011;49042;47.318;19.874;2022-10-31T10:28:44;43.53;;;19.40;;
62941;SDS011;49042;47.318;19.874;2022-10-31T10:31:56;43.83;;;18.33;;
62941;SDS011;49042;47.318;19.874;2022-10-31T10:35:13;42.55;;;18.77;;
62941;SDS011;49042;47.318;19.874;2022-10-31T10:38:23;41.50;;;18.80;;
62941;SDS011;49042;47.318;19.874;2022-10-31T10:41:32;49.05;;;19.83;;
62941;SDS011;49042;47.318;19.874;2022-10-31T10:44:37;56.53;;;20.25;;
62941;SDS011;49042;47.318;19.874;2022-10-31T10:48:06;51.83;;;19.98;;
62941;SDS011;49042;47.318;19.874;2022-10-31T10:51:18;48.90;;;21.12;;
62941;SDS011;49042;47.318;19.874;2022-10-31T10:54:45;48.40;;;20.62;;
62941;SDS011;49042;47.318;19.874;2022-10-31T11:01:14;49.80;;;23.15;;
62941;SDS011;49042;47.318;19.874;2022-10-31T11:07:38;57.22;;;21.35;;
62941;SDS011;49042;47.318;19.874;2022-10-31T11:10:41;49.28;;;22.98;;
62941;SDS011;49042;47.318;19.874;2022-10-31T11:13:47;58.15;;;22.95;;
62941;SDS011;49042;47.318;19.874;2022-10-31T11:16:55;51.25;;;22.02;;
62941;SDS011;49042;47.318;19.874;2022-10-31T11:23:19;49.60;;;21.50;;
62941;SDS011;49042;47.318;19.874;2022-10-31T11:26:23;45.70;;;19.37;;
62941;SDS011;49042;47.318;19.874;2022-10-31T11:29:25;51.58;;;23.30;;
62941;SDS011;49042;47.318;19.874;2022-10-31T11:32:27;50.88;;;21.30;;
62941;SDS011;49042;47.318;19.874;2022-10-31T11:35:30;40.85;;;18.15;;
62941;SDS011;49042;47.318;19.874;2022-10-31T11:38:34;43.28;;;18.90;;
62941;SDS011;49042;47.318;19.874;2022-10-31T11:41:44;42.00;;;18.02;;
62941;SDS011;49042;47.318;19.874;2022-10-31T11:44:47;43.95;;;18.10;;
62941;SDS011;49042;47.318;19.874;2022-10-31T11:47:52;36.15;;;16.75;;
62941;SDS011;49042;47.318;19.874;2022-10-31T11:51:00;45.42;;;16.50;;
62941;SDS011;49042;47.318;19.874;2022-10-31T11:54:02;37.97;;;18.33;;
62941;SDS011;49042;47.318;19.874;2022-10-31T11:57:20;33.78;;;17.08;;
62941;SDS011;49042;47.318;19.874;2022-10-31T12:00:33;36.75;;;17.20;;
62941;SDS011;49042;47.318;19.874;2022-10-31T12:06:56;38.08;;;17.25;;
62941;SDS011;49042;47.318;19.874;2022-10-31T12:09:58;47.67;;;18.50;;
62941;SDS011;49042;47.318;19.874;2022-10-31T12:23:51;198.25;;;58.72;;
62941;SDS011;49042;47.318;19.874;2022-10-31T12:27:14;63.25;;;26.80;;
62941;SDS011;49042;47.318;19.874;2022-10-31T12:37:32;34.83;;;16.37;;
62941;SDS011;49042;47.318;19.874;2022-10-31T12:44:34;34.05;;;15.55;;
62941;SDS011;49042;47.318;19.874;2022-10-31T12:58:09;32.63;;;15.70;;
62941;SDS011;49042;47.318;19.874;2022-10-31T13:04:47;29.95;;;15.80;;
62941;SDS011;49042;47.318;19.874;2022-10-31T13:07:57;44.63;;;17.75;;
62941;SDS011;49042;47.318;19.874;2022-10-31T13:11:08;33.50;;;16.90;;
62941;SDS011;49042;47.318;19.874;2022-10-31T13:14:29;47.60;;;19.75;;
62941;SDS011;49042;47.318;19.874;2022-10-31T13:17:41;40.17;;;17.40;;
62941;SDS011;49042;47.318;19.874;2022-10-31T13:20:46;48.75;;;20.85;;
62941;SDS011;49042;47.318;19.874;2022-10-31T13:23:56;42.55;;;17.73;;
62941;SDS011;49042;47.318;19.874;2022-10-31T13:27:07;40.42;;;18.48;;
62941;SDS011;49042;47.318;19.874;2022-10-31T13:30:15;50.22;;;19.05;;
62941;SDS011;49042;47.318;19.874;2022-10-31T13:33:33;40.08;;;18.67;;
62941;SDS011;49042;47.318;19.874;2022-10-31T13:40:02;32.67;;;16.12;;
62941;SDS011;49042;47.318;19.874;2022-10-31T13:43:19;42.00;;;17.55;;
62941;SDS011;49042;47.318;19.874;2022-10-31T13:46:37;35.17;;;16.30;;
62941;SDS011;49042;47.318;19.874;2022-10-31T13:49:41;36.72;;;15.52;;
62941;SDS011;49042;47.318;19.874;2022-10-31T13:56:13;45.15;;;17.60;;
62941;SDS011;49042;47.318;19.874;2022-10-31T13:59:19;44.17;;;19.27;;
62941;SDS011;49042;47.318;19.874;2022-10-31T14:02:30;44.58;;;20.77;;
62941;SDS011;49042;47.318;19.874;2022-10-31T14:05:35;46.30;;;20.88;;
62941;SDS011;49042;47.318;19.874;2022-10-31T14:08:39;65.87;;;26.25;;
62941;SDS011;49042;47.318;19.874;2022-10-31T14:11:48;50.97;;;21.65;;
62941;SDS011;49042;47.318;19.874;2022-10-31T14:14:52;54.90;;;25.35;;
62941;SDS011;49042;47.318;19.874;2022-10-31T14:17:59;52.28;;;23.65;;
62941;SDS011;49042;47.318;19.874;2022-10-31T14:21:15;41.67;;;19.70;;
62941;SDS011;49042;47.318;19.874;2022-10-31T14:27:45;49.42;;;19.73;;
62941;SDS011;49042;47.318;19.874;2022-10-31T14:30:54;54.83;;;24.95;;
62941;SDS011;49042;47.318;19.874;2022-10-31T14:33:59;68.87;;;27.73;;
62941;SDS011;49042;47.318;19.874;2022-10-31T14:40:27;69.60;;;32.45;;
62941;SDS011;49042;47.318;19.874;2022-10-31T14:53:17;68.20;;;31.67;;
62941;SDS011;49042;47.318;19.874;2022-10-31T14:59:28;79.75;;;35.25;;
62941;SDS011;49042;47.318;19.874;2022-10-31T15:02:48;62.25;;;26.37;;
62941;SDS011;49042;47.318;19.874;2022-10-31T15:06:01;63.17;;;26.83;;
62941;SDS011;49042;47.318;19.874;2022-10-31T15:09:21;73.87;;;31.27;;
62941;SDS011;49042;47.318;19.874;2022-10-31T15:12:35;83.97;;;37.83;;
62941;SDS011;49042;47.318;19.874;2022-10-31T15:15:40;76.47;;;34.67;;
62941;SDS011;49042;47.318;19.874;2022-10-31T15:22:07;72.25;;;30.20;;
62941;SDS011;49042;47.318;19.874;2022-10-31T15:25:19;76.70;;;31.33;;
62941;SDS011;49042;47.318;19.874;2022-10-31T15:28:27;73.07;;;30.37;;
62941;SDS011;49042;47.318;19.874;2022-10-31T15:31:29;76.75;;;30.90;;
62941;SDS011;49042;47.318;19.874;2022-10-31T15:34:37;75.80;;;29.63;;
62941;SDS011;49042;47.318;19.874;2022-10-31T15:37:43;72.47;;;27.95;;
62941;SDS011;49042;47.318;19.874;2022-10-31T15:40:51;70.15;;;30.83;;
62941;SDS011;49042;47.318;19.874;2022-10-31T15:43:57;55.80;;;23.08;;
62941;SDS011;49042;47.318;19.874;2022-10-31T15:47:05;52.25;;;21.50;;
62941;SDS011;49042;47.318;19.874;2022-10-31T15:50:21;60.67;;;25.70;;
62941;SDS011;49042;47.318;19.874;2022-10-31T15:53:32;51.13;;;22.40;;
62941;SDS011;49042;47.318;19.874;2022-10-31T15:56:37;47.50;;;22.23;;
62941;SDS011;49042;47.318;19.874;2022-10-31T15:59:40;43.08;;;20.25;;
62941;SDS011;49042;47.318;19.874;2022-10-31T16:02:46;48.65;;;21.45;;
62941;SDS011;49042;47.318;19.874;2022-10-31T16:05:49;69.60;;;31.65;;
62941;SDS011;49042;47.318;19.874;2022-10-31T16:08:55;63.45;;;26.23;;
62941;SDS011;49042;47.318;19.874;2022-10-31T16:11:57;74.60;;;37.63;;
62941;SDS011;49042;47.318;19.874;2022-10-31T16:15:00;102.87;;;61.22;;
62941;SDS011;49042;47.318;19.874;2022-10-31T16:18:03;49.28;;;21.67;;
62941;SDS011;49042;47.318;19.874;2022-10-31T16:21:06;59.50;;;25.25;;
62941;SDS011;49042;47.318;19.874;2022-10-31T16:27:22;55.55;;;23.08;;
62941;SDS011;49042;47.318;19.874;2022-10-31T16:33:47;56.70;;;23.60;;
62941;SDS011;49042;47.318;19.874;2022-10-31T16:36:49;49.60;;;21.70;;
62941;SDS011;49042;47.318;19.874;2022-10-31T16:39:51;73.50;;;28.87;;
62941;SDS011;49042;47.318;19.874;2022-10-31T16:42:53;65.65;;;24.63;;
62941;SDS011;49042;47.318;19.874;2022-10-31T16:45:59;61.00;;;22.97;;
62941;SDS011;49042;47.318;19.874;2022-10-31T16:49:02;65.75;;;23.80;;
62941;SDS011;49042;47.318;19.874;2022-10-31T16:52:04;59.38;;;22.65;;
62941;SDS011;49042;47.318;19.874;2022-10-31T16:55:09;60.47;;;22.87;;
62941;SDS011;49042;47.318;19.874;2022-10-31T16:58:15;73.72;;;28.70;;
62941;SDS011;49042;47.318;19.874;2022-10-31T17:01:36;78.85;;;29.95;;
62941;SDS011;49042;47.318;19.874;2022-10-31T17:04:39;97.57;;;36.90;;
62941;SDS011;49042;47.318;19.874;2022-10-31T17:07:41;104.50;;;39.20;;
62941;SDS011;49042;47.318;19.874;2022-10-31T17:10:44;74.85;;;28.45;;
62941;SDS011;49042;47.318;19.874;2022-10-31T17:13:48;70.12;;;27.50;;
62941;SDS011;49042;47.318;19.874;2022-10-31T17:16:50;76.03;;;28.90;;
62941;SDS011;49042;47.318;19.874;2022-10-31T17:19:52;80.75;;;30.80;;
62941;SDS011;49042;47.318;19.874;2022-10-31T17:22:54;85.28;;;34.42;;
62941;SDS011;49042;47.318;19.874;2022-10-31T17:25:57;95.00;;;33.50;;
62941;SDS011;49042;47.318;19.874;2022-10-31T17:29:00;78.03;;;28.58;;
62941;SDS011;49042;47.318;19.874;2022-10-31T17:32:04;87.53;;;32.05;;
62941;SDS011;49042;47.318;19.874;2022-10-31T17:35:07;87.97;;;30.70;;
62941;SDS011;49042;47.318;19.874;2022-10-31T17:38:10;80.32;;;30.98;;
62941;SDS011;49042;47.318;19.874;2022-10-31T17:41:12;88.05;;;33.17;;
62941;SDS011;49042;47.318;19.874;2022-10-31T17:44:16;81.15;;;31.98;;
62941;SDS011;49042;47.318;19.874;2022-10-31T17:47:19;84.93;;;30.60;;
62941;SDS011;49042;47.318;19.874;2022-10-31T17:50:22;76.85;;;29.10;;
62941;SDS011;49042;47.318;19.874;2022-10-31T17:53:29;84.93;;;31.35;;
62941;SDS011;49042;47.318;19.874;2022-10-31T17:56:32;86.87;;;28.65;;
62941;SDS011;49042;47.318;19.874;2022-10-31T17:59:34;87.55;;;31.40;;
62941;SDS011;49042;47.318;19.874;2022-10-31T18:02:36;86.70;;;32.25;;
62941;SDS011;49042;47.318;19.874;2022-10-31T18:05:39;68.03;;;26.67;;
62941;SDS011;49042;47.318;19.874;2022-10-31T18:09:06;80.30;;;26.23;;
62941;SDS011;49042;47.318;19.874;2022-10-31T18:12:08;76.85;;;26.10;;
62941;SDS011;49042;47.318;19.874;2022-10-31T18:15:10;74.07;;;27.85;;
62941;SDS011;49042;47.318;19.874;2022-10-31T18:18:12;82.15;;;27.95;;
62941;SDS011;49042;47.318;19.874;2022-10-31T18:21:15;75.95;;;26.70;;
62941;SDS011;49042;47.318;19.874;2022-10-31T18:24:19;74.22;;;26.77;;
62941;SDS011;49042;47.318;19.874;2022-10-31T18:27:21;75.35;;;27.33;;
62941;SDS011;49042;47.318;19.874;2022-10-31T18:30:23;72.12;;;26.87;;
62941;SDS011;49042;47.318;19.874;2022-10-31T18:33:26;77.75;;;27.85;;
62941;SDS011;49042;47.318;19.874;2022-10-31T18:36:29;81.55;;;27.52;;
62941;SDS011;49042;47.318;19.874;2022-10-31T18:39:32;75.47;;;26.83;;
62941;SDS011;49042;47.318;19.874;2022-10-31T18:42:35;78.43;;;26.60;;
62941;SDS011;49042;47.318;19.874;2022-10-31T18:45:38;68.97;;;25.75;;
62941;SDS011;49042;47.318;19.874;2022-10-31T18:48:49;82.05;;;26.12;;
62941;SDS011;49042;47.318;19.874;2022-10-31T18:51:52;62.72;;;23.45;;
62941;SDS011;49042;47.318;19.874;2022-10-31T18:54:54;59.08;;;22.60;;
62941;SDS011;49042;47.318;19.874;2022-10-31T18:57:57;62.60;;;22.58;;
62941;SDS011;49042;47.318;19.874;2022-10-31T19:00:59;59.25;;;21.42;;
62941;SDS011;49042;47.318;19.874;2022-10-31T19:04:09;52.92;;;20.35;;
62941;SDS011;49042;47.318;19.874;2022-10-31T19:07:11;59.67;;;22.73;;
62941;SDS011;49042;47.318;19.874;2022-10-31T19:10:14;63.83;;;23.75;;
62941;SDS011;49042;47.318;19.874;2022-10-31T19:13:16;65.55;;;23.35;;
62941;SDS011;49042;47.318;19.874;2022-10-31T19:16:20;53.83;;;22.55;;
62941;SDS011;49042;47.318;19.874;2022-10-31T19:19:22;59.95;;;21.00;;
62941;SDS011;49042;47.318;19.874;2022-10-31T19:22:25;63.30;;;23.10;;
62941;SDS011;49042;47.318;19.874;2022-10-31T19:25:28;65.30;;;24.77;;
62941;SDS011;49042;47.318;19.874;2022-10-31T19:28:32;70.37;;;23.87;;
62941;SDS011;49042;47.318;19.874;2022-10-31T19:31:35;54.53;;;21.92;;
62941;SDS011;49042;47.318;19.874;2022-10-31T19:34:38;52.75;;;20.92;;
62941;SDS011;49042;47.318;19.874;2022-10-31T19:37:40;61.63;;;22.75;;
62941;SDS011;49042;47.318;19.874;2022-10-31T19:40:44;55.70;;;21.45;;
62941;SDS011;49042;47.318;19.874;2022-10-31T19:43:46;60.42;;;21.90;;
62941;SDS011;49042;47.318;19.874;2022-10-31T19:46:50;61.97;;;21.77;;
62941;SDS011;49042;47.318;19.874;2022-10-31T19:49:54;53.42;;;20.83;;
62941;SDS011;49042;47.318;19.874;2022-10-31T19:52:56;51.28;;;21.27;;
62941;SDS011;49042;47.318;19.874;2022-10-31T19:56:00;56.95;;;22.80;;
62941;SDS011;49042;47.318;19.874;2022-10-31T19:59:02;54.42;;;21.08;;
62941;SDS011;49042;47.318;19.874;2022-10-31T20:02:08;53.28;;;21.52;;
62941;SDS011;49042;47.318;19.874;2022-10-31T20:05:20;50.15;;;21.15;;
62941;SDS011;49042;47.318;19.874;2022-10-31T20:08:23;59.88;;;24.08;;
62941;SDS011;49042;47.318;19.874;2022-10-31T20:11:26;64.75;;;24.10;;